Terminal Aerodrome Forecast
Issued by NWS

Home | Current Version | Previous Version | Text Only | Print | Product List | Glossary On
Versions: 1 2 3 4 5 6 7 8 9 10 11 12 13 14 15 16 17 18 19 20 21 22 23 24 25 26 27
000
FTAK31 PAJN 201137
TAFAYA
TAF
PAYA 201137Z 2012/2112 08004KT P6SM VCSH SCT011 SCT022 OVC040
      TEMPO 2012/2016 -SHRA BKN011 BKN022 OVC035
     FM201800 12010KT 6SM -RA BKN015 OVC025
     FM210000 09008KT 5SM -RA BR SCT015 OVC025
     FM210600 10010KT 4SM RA BR SCT007 OVC015 WS020/10030KT
      AMD LTD TO CLD VIS AND WIND=

USA.gov is the U.S. government's official web portal to all federal, state and local government web resources and services.